createdAt,value
2017-09-19T00:01:33.025Z,12.20
2017-09-19T00:04:00.617Z,12.20
2017-09-19T00:06:28.195Z,12.20
2017-09-19T00:08:55.759Z,12.20
2017-09-19T00:11:23.323Z,12.30
2017-09-19T00:13:50.899Z,12.30
2017-09-19T00:16:18.510Z,12.30
2017-09-19T00:18:46.096Z,12.30
2017-09-19T00:21:13.711Z,12.30
2017-09-19T00:23:42.069Z,12.30
2017-09-19T00:26:09.609Z,12.30
2017-09-19T00:28:37.253Z,12.30
2017-09-19T00:31:04.853Z,12.30
2017-09-19T00:33:32.469Z,12.30
2017-09-19T00:36:00.792Z,12.30
2017-09-19T00:38:28.422Z,12.30
2017-09-19T00:40:56.092Z,12.30
2017-09-19T00:43:23.673Z,12.30
2017-09-19T00:45:51.274Z,12.30
2017-09-19T00:48:18.838Z,12.30
2017-09-19T00:50:46.453Z,12.30
2017-09-19T00:53:14.024Z,12.30
2017-09-19T00:55:41.612Z,12.30
2017-09-19T00:58:09.198Z,12.30
2017-09-19T01:00:36.785Z,12.30
2017-09-19T01:03:05.114Z,12.30
2017-09-19T01:05:32.672Z,12.30
2017-09-19T01:08:00.252Z,12.30
2017-09-19T01:10:27.812Z,12.30
2017-09-19T01:12:55.398Z,12.30
2017-09-19T01:15:22.975Z,12.30
2017-09-19T01:17:50.597Z,12.30
2017-09-19T01:20:18.215Z,12.30
2017-09-19T01:22:46.543Z,12.30
2017-09-19T01:25:14.107Z,12.30
2017-09-19T01:27:41.713Z,12.30
2017-09-19T01:30:09.367Z,12.30
2017-09-19T01:32:37.727Z,12.30
2017-09-19T01:35:05.302Z,12.30
2017-09-19T01:37:32.926Z,12.30
2017-09-19T01:40:00.583Z,12.30
2017-09-19T01:42:28.961Z,12.30
2017-09-19T01:44:57.307Z,12.30
2017-09-19T01:47:24.937Z,12.30
2017-09-19T01:49:52.493Z,12.30
2017-09-19T01:52:20.144Z,12.20
2017-09-19T01:54:47.757Z,12.20
2017-09-19T01:57:15.302Z,12.20
2017-09-19T01:59:42.883Z,12.20
2017-09-19T02:02:10.477Z,12.20
2017-09-19T02:04:38.852Z,12.20
2017-09-19T02:07:07.195Z,12.20
2017-09-19T02:09:34.765Z,12.20
2017-09-19T02:12:02.359Z,12.30
2017-09-19T02:14:29.935Z,12.30
2017-09-19T02:16:58.313Z,12.30
2017-09-19T02:19:25.898Z,12.30
2017-09-19T02:21:54.280Z,12.20
2017-09-19T02:24:22.631Z,12.20
2017-09-19T02:26:50.237Z,12.20
2017-09-19T02:29:17.817Z,12.20
2017-09-19T02:31:45.393Z,12.20
2017-09-19T02:34:13.009Z,12.30
2017-09-19T02:36:41.369Z,12.20
2017-09-19T02:39:08.988Z,12.20
2017-09-19T02:41:36.549Z,12.30
2017-09-19T02:44:04.155Z,12.30
2017-09-19T02:46:31.751Z,12.30
2017-09-19T02:49:00.099Z,12.30
2017-09-19T02:51:27.699Z,12.30
2017-09-19T02:53:56.044Z,12.30
2017-09-19T02:56:23.649Z,12.30
2017-09-19T02:58:51.217Z,12.30
2017-09-19T03:01:19.555Z,12.30
2017-09-19T03:03:47.147Z,12.30
2017-09-19T03:06:15.518Z,12.30
2017-09-19T03:08:44.685Z,12.30
2017-09-19T03:11:12.278Z,12.30
2017-09-19T03:13:39.855Z,12.30
2017-09-19T03:16:07.441Z,12.30
2017-09-19T03:18:35.030Z,12.30
2017-09-19T03:21:02.620Z,12.30
2017-09-19T03:23:30.194Z,12.30
2017-09-19T03:25:57.805Z,12.30
2017-09-19T03:28:25.438Z,12.30
2017-09-19T03:30:53.769Z,12.20
2017-09-19T03:33:21.379Z,12.20
2017-09-19T03:35:48.945Z,12.20
2017-09-19T03:38:17.290Z,12.20
2017-09-19T03:40:44.886Z,12.20
2017-09-19T03:43:12.460Z,12.20
2017-09-19T03:45:40.816Z,12.20
2017-09-19T03:48:08.407Z,12.10
2017-09-19T03:50:36.794Z,12.20
2017-09-19T03:53:05.328Z,12.20
2017-09-19T03:55:32.889Z,12.10
2017-09-19T03:58:00.505Z,12.10
2017-09-19T04:00:28.843Z,12.10
2017-09-19T04:02:56.432Z,12.10
2017-09-19T04:05:24.013Z,12.10
2017-09-19T04:07:51.587Z,12.10
2017-09-19T04:10:19.959Z,12.00
2017-09-19T04:12:48.305Z,12.00
2017-09-19T04:15:15.967Z,12.00
2017-09-19T04:17:43.549Z,12.10
2017-09-19T04:20:11.138Z,12.00
2017-09-19T04:22:39.514Z,12.00
2017-09-19T04:25:07.217Z,12.00
2017-09-19T04:27:34.805Z,12.00
2017-09-19T04:30:02.396Z,12.00
2017-09-19T04:32:30.068Z,12.00
2017-09-19T04:34:57.705Z,12.00
2017-09-19T04:37:25.290Z,12.00
2017-09-19T04:39:52.876Z,12.00
2017-09-19T04:42:21.303Z,12.00
2017-09-19T04:44:48.915Z,12.00
2017-09-19T04:47:16.528Z,12.00
2017-09-19T04:49:44.102Z,12.00
2017-09-19T04:52:11.693Z,12.00
2017-09-19T04:54:39.291Z,12.00
2017-09-19T04:57:06.915Z,12.10
2017-09-19T04:59:34.520Z,12.10
2017-09-19T05:02:02.943Z,12.00
2017-09-19T05:04:30.616Z,12.10
2017-09-19T05:06:58.249Z,12.00
2017-09-19T05:09:25.833Z,12.00
2017-09-19T05:11:53.479Z,12.00
2017-09-19T05:14:21.846Z,12.00
2017-09-19T05:16:50.214Z,12.10
2017-09-19T05:19:18.604Z,12.10
2017-09-19T05:21:46.928Z,12.10
2017-09-19T05:24:14.527Z,12.10
2017-09-19T05:26:42.128Z,12.00
2017-09-19T05:29:10.521Z,12.10
2017-09-19T05:31:38.151Z,12.00
2017-09-19T05:34:06.486Z,12.10
2017-09-19T05:36:34.093Z,12.00
2017-09-19T05:39:02.410Z,12.10
2017-09-19T05:41:30.029Z,12.10
2017-09-19T05:43:57.610Z,12.10
2017-09-19T05:46:25.961Z,12.10
2017-09-19T05:48:53.531Z,12.10
2017-09-19T05:51:21.182Z,12.10
2017-09-19T05:53:48.755Z,12.10
2017-09-19T05:56:16.339Z,12.10
2017-09-19T05:58:44.025Z,12.20
2017-09-19T06:01:12.571Z,12.20
2017-09-19T06:03:40.168Z,12.20
2017-09-19T06:06:08.754Z,12.20
2017-09-19T06:08:48.248Z,12.20
2017-09-19T06:11:15.835Z,12.20
2017-09-19T06:13:43.411Z,12.20
2017-09-19T06:16:10.993Z,12.20
2017-09-19T06:18:39.388Z,12.20
2017-09-19T06:21:07.763Z,12.20
2017-09-19T06:23:36.127Z,12.20
2017-09-19T06:26:03.732Z,12.20
2017-09-19T06:28:31.341Z,12.20
2017-09-19T06:30:58.915Z,12.20
2017-09-19T06:33:26.527Z,12.20
2017-09-19T06:35:54.108Z,12.20
2017-09-19T06:38:21.699Z,12.30
2017-09-19T06:40:49.298Z,12.20
2017-09-19T06:43:17.642Z,12.30
2017-09-19T06:45:45.225Z,12.30
2017-09-19T06:48:12.821Z,12.30
2017-09-19T06:50:40.449Z,12.30
2017-09-19T06:53:08.027Z,12.30
2017-09-19T06:55:36.385Z,12.40
2017-09-19T06:58:03.983Z,12.30
2017-09-19T07:00:32.340Z,12.40
2017-09-19T07:03:00.740Z,12.30
2017-09-19T07:05:29.102Z,12.30
2017-09-19T07:07:57.463Z,12.30
2017-09-19T07:10:25.066Z,12.30
2017-09-19T07:12:53.406Z,12.40
2017-09-19T07:15:21.010Z,12.40
2017-09-19T07:17:50.628Z,12.40
2017-09-19T07:20:19.044Z,12.40
2017-09-19T07:22:46.641Z,12.40
2017-09-19T07:25:14.233Z,12.50
2017-09-19T07:27:42.595Z,12.60
2017-09-19T07:30:10.208Z,12.50
2017-09-19T07:32:37.820Z,12.60
2017-09-19T07:35:05.381Z,12.60
2017-09-19T07:37:32.978Z,12.60
2017-09-19T07:40:01.350Z,12.70
2017-09-19T07:42:28.969Z,12.60
2017-09-19T07:44:56.545Z,12.70
2017-09-19T07:47:24.128Z,12.80
2017-09-19T07:49:51.736Z,12.80
2017-09-19T07:52:19.368Z,12.80
2017-09-19T07:54:46.943Z,12.80
2017-09-19T07:57:15.269Z,12.80
2017-09-19T07:59:42.941Z,12.80
2017-09-19T08:02:10.551Z,12.90
2017-09-19T08:04:38.891Z,13.10
2017-09-19T08:07:06.481Z,13.10
2017-09-19T08:09:34.845Z,13.20
2017-09-19T08:12:02.432Z,13.20
2017-09-19T08:14:30.160Z,13.30
2017-09-19T08:16:57.724Z,13.40
2017-09-19T08:19:25.321Z,13.50
2017-09-19T08:21:53.368Z,13.60
2017-09-19T08:24:21.030Z,13.70
2017-09-19T08:26:48.609Z,13.80
2017-09-19T08:29:16.183Z,13.70
2017-09-19T08:31:44.553Z,13.70
2017-09-19T08:34:12.112Z,13.70
2017-09-19T08:36:39.705Z,13.80
2017-09-19T08:39:07.293Z,13.80
2017-09-19T08:41:35.612Z,13.70
2017-09-19T08:44:03.195Z,13.70
2017-09-19T08:46:30.841Z,13.60
2017-09-19T08:48:58.444Z,13.40
2017-09-19T08:51:26.765Z,13.40
2017-09-19T08:53:54.378Z,13.40
2017-09-19T08:56:22.093Z,13.40
2017-09-19T08:58:49.682Z,13.30
2017-09-19T09:01:17.285Z,13.30
2017-09-19T09:03:45.661Z,13.20
2017-09-19T09:06:13.277Z,13.30
2017-09-19T09:08:40.860Z,13.30
2017-09-19T09:11:08.453Z,13.30
2017-09-19T09:13:36.070Z,13.40
2017-09-19T09:16:03.660Z,13.40
2017-09-19T09:18:31.280Z,13.30
2017-09-19T09:20:59.641Z,13.30
2017-09-19T09:23:28.762Z,13.30
2017-09-19T09:25:57.181Z,13.30
2017-09-19T09:28:24.824Z,13.30
2017-09-19T09:30:52.515Z,13.20
2017-09-19T09:33:20.087Z,13.10
2017-09-19T09:35:47.705Z,13.10
2017-09-19T09:38:16.122Z,13.30
2017-09-19T09:40:43.703Z,13.30
2017-09-19T09:43:11.308Z,13.30
2017-09-19T09:45:39.650Z,13.50
2017-09-19T09:48:07.261Z,13.50
2017-09-19T09:50:35.610Z,13.50
2017-09-19T09:53:03.200Z,13.40
2017-09-19T09:55:30.775Z,13.60
2017-09-19T09:57:59.144Z,13.90
2017-09-19T10:00:27.486Z,13.90
2017-09-19T10:02:55.139Z,13.80
2017-09-19T10:05:22.738Z,13.90
2017-09-19T10:07:50.367Z,13.90
2017-09-19T10:10:17.964Z,13.90
2017-09-19T10:12:45.521Z,13.80
2017-09-19T10:15:13.138Z,13.70
2017-09-19T10:17:40.735Z,13.70
2017-09-19T10:20:08.307Z,13.70
2017-09-19T10:22:35.903Z,13.70
2017-09-19T10:25:04.243Z,13.70
2017-09-19T10:27:31.831Z,13.70
2017-09-19T10:29:59.411Z,13.70
2017-09-19T10:32:27.522Z,13.70
2017-09-19T10:34:55.210Z,13.70
2017-09-19T10:37:22.788Z,13.90
2017-09-19T10:39:50.418Z,14.10
2017-09-19T10:42:17.996Z,14.20
2017-09-19T10:44:45.610Z,14.20
2017-09-19T10:47:13.209Z,14.20
2017-09-19T10:49:40.833Z,14.20
2017-09-19T10:52:08.425Z,14.10
2017-09-19T10:54:36.786Z,14.00
2017-09-19T10:57:04.360Z,14.00
2017-09-19T10:59:32.721Z,13.90
2017-09-19T11:02:00.328Z,13.90
2017-09-19T11:04:27.902Z,14.00
2017-09-19T11:06:55.521Z,13.90
2017-09-19T11:09:23.868Z,13.90
2017-09-19T11:11:51.455Z,13.90
2017-09-19T11:14:19.069Z,13.90
2017-09-19T11:16:46.652Z,13.90
2017-09-19T11:19:14.336Z,14.10
2017-09-19T11:21:41.993Z,14.10
2017-09-19T11:24:09.604Z,14.20
2017-09-19T11:26:37.951Z,14.40
2017-09-19T11:29:05.528Z,14.40
2017-09-19T11:31:33.133Z,14.40
2017-09-19T11:34:01.479Z,14.50
2017-09-19T11:36:29.846Z,14.40
2017-09-19T11:38:57.447Z,14.40
2017-09-19T11:41:25.874Z,14.50
2017-09-19T11:43:53.454Z,14.50
2017-09-19T11:46:21.061Z,14.50
2017-09-19T11:48:49.415Z,14.50
2017-09-19T11:51:17.017Z,14.50
2017-09-19T11:53:45.346Z,14.70
2017-09-19T11:56:12.955Z,14.70
2017-09-19T11:58:41.303Z,14.90
2017-09-19T12:01:08.897Z,14.90
2017-09-19T12:03:37.281Z,15.30
2017-09-19T12:06:05.628Z,15.80
2017-09-19T12:08:33.227Z,15.80
2017-09-19T12:11:01.552Z,17.70
2017-09-19T12:13:29.197Z,17.70
2017-09-19T12:15:56.818Z,18.10
2017-09-19T12:18:24.433Z,18.50
2017-09-19T12:20:52.007Z,18.80
2017-09-19T12:23:19.639Z,19.60
2017-09-19T12:25:47.980Z,21.10
2017-09-19T12:28:15.552Z,21.10
2017-09-19T12:30:43.144Z,21.60
2017-09-19T12:33:11.499Z,22.30
2017-09-19T12:35:39.128Z,22.30
2017-09-19T12:38:06.721Z,22.70
2017-09-19T12:40:34.295Z,22.90
2017-09-19T12:43:03.391Z,22.50
2017-09-19T12:45:30.967Z,22.50
2017-09-19T12:47:59.340Z,21.90
2017-09-19T12:50:26.933Z,21.90
2017-09-19T12:52:55.486Z,21.20
2017-09-19T12:55:23.069Z,21.20
2017-09-19T12:57:50.674Z,21.20
2017-09-19T13:00:18.282Z,21.00
2017-09-19T13:02:45.931Z,20.80
2017-09-19T13:05:13.545Z,20.90
2017-09-19T13:07:41.900Z,21.00
2017-09-19T13:10:09.543Z,21.00
2017-09-19T13:12:37.137Z,20.60
2017-09-19T13:15:05.513Z,20.10
2017-09-19T13:17:33.142Z,20.00
2017-09-19T13:20:00.729Z,19.70
2017-09-19T13:22:28.326Z,19.20
2017-09-19T13:24:56.703Z,19.00
2017-09-19T13:27:24.289Z,19.00
2017-09-19T13:29:51.905Z,18.80
2017-09-19T13:32:31.399Z,19.00
2017-09-19T13:34:59.027Z,19.30
2017-09-19T13:37:27.369Z,18.80
2017-09-19T13:39:55.027Z,18.80
2017-09-19T13:42:22.631Z,18.80
2017-09-19T13:44:51.719Z,18.80
2017-09-19T13:47:19.324Z,18.80
2017-09-19T13:49:46.903Z,18.70
2017-09-19T13:52:14.487Z,18.40
2017-09-19T13:54:42.087Z,18.00
2017-09-19T13:57:11.359Z,17.60
2017-09-19T13:59:38.965Z,17.60
2017-09-19T14:02:06.571Z,17.40
2017-09-19T14:04:34.144Z,17.30
2017-09-19T14:07:01.759Z,17.20
2017-09-19T14:09:29.321Z,17.10
2017-09-19T14:11:56.985Z,17.10
2017-09-19T14:14:25.336Z,17.20
2017-09-19T14:16:53.341Z,17.10
2017-09-19T14:19:20.943Z,17.20
2017-09-19T14:21:48.523Z,17.00
2017-09-19T14:24:16.194Z,16.90
2017-09-19T14:26:43.771Z,16.80
2017-09-19T14:29:11.373Z,16.80
2017-09-19T14:31:39.753Z,16.90
2017-09-19T14:34:08.088Z,17.00
2017-09-19T14:36:35.700Z,17.10
2017-09-19T14:39:04.117Z,17.10
2017-09-19T14:41:31.727Z,17.10
2017-09-19T14:43:59.342Z,17.20
2017-09-19T14:46:26.909Z,17.20
2017-09-19T14:48:54.582Z,17.30
2017-09-19T14:51:22.163Z,17.30
2017-09-19T14:53:49.739Z,17.40
2017-09-19T14:56:17.343Z,17.30
2017-09-19T14:58:45.764Z,17.20
2017-09-19T15:01:13.344Z,17.20
2017-09-19T15:03:41.752Z,17.20
2017-09-19T15:06:09.362Z,17.20
2017-09-19T15:08:36.974Z,17.10
2017-09-19T15:11:04.619Z,17.00
2017-09-19T15:13:32.180Z,16.90
2017-09-19T15:15:59.801Z,16.80
2017-09-19T15:18:28.165Z,16.70
2017-09-19T15:20:55.743Z,16.60
2017-09-19T15:23:24.167Z,16.60
2017-09-19T15:25:51.834Z,16.60
2017-09-19T15:28:19.396Z,16.60
2017-09-19T15:30:46.967Z,16.60
2017-09-19T15:33:14.588Z,16.60
2017-09-19T15:35:42.948Z,16.50
2017-09-19T15:38:10.547Z,16.50
2017-09-19T15:40:38.122Z,16.40
2017-09-19T15:43:05.769Z,16.40
2017-09-19T15:45:34.155Z,16.30
2017-09-19T15:48:01.752Z,16.30
2017-09-19T15:50:29.351Z,16.20
2017-09-19T15:52:56.957Z,16.20
2017-09-19T15:55:24.592Z,16.20
2017-09-19T15:57:52.191Z,16.20
2017-09-19T16:00:19.771Z,16.20
2017-09-19T16:02:47.363Z,16.20
2017-09-19T16:05:14.996Z,16.20
2017-09-19T16:07:42.579Z,16.10
2017-09-19T16:10:10.189Z,16.10
2017-09-19T16:12:38.555Z,16.00
2017-09-19T16:15:06.132Z,16.00
2017-09-19T16:17:34.509Z,15.90
2017-09-19T16:20:02.940Z,15.80
2017-09-19T16:22:30.543Z,15.80
2017-09-19T16:24:58.134Z,15.80
2017-09-19T16:27:26.475Z,15.70
2017-09-19T16:29:54.069Z,15.70
2017-09-19T16:32:22.458Z,15.60
2017-09-19T16:34:50.804Z,15.60
2017-09-19T16:37:18.375Z,15.50
2017-09-19T16:39:45.976Z,15.60
2017-09-19T16:42:14.321Z,15.50
2017-09-19T16:44:41.911Z,15.40
2017-09-19T16:47:10.336Z,15.30
2017-09-19T16:49:37.945Z,15.30
2017-09-19T16:52:05.512Z,15.20
2017-09-19T16:54:33.101Z,15.20
2017-09-19T16:57:00.684Z,15.20
2017-09-19T16:59:28.245Z,15.10
2017-09-19T17:01:56.215Z,15.10
2017-09-19T17:04:23.809Z,15.10
2017-09-19T17:06:51.461Z,15.00
2017-09-19T17:09:19.126Z,14.90
2017-09-19T17:11:46.703Z,14.90
2017-09-19T17:14:14.293Z,14.80
2017-09-19T17:16:42.701Z,14.70
2017-09-19T17:19:12.167Z,14.70
2017-09-19T17:21:39.852Z,14.70
2017-09-19T17:24:07.428Z,14.60
2017-09-19T17:26:35.813Z,14.40
2017-09-19T17:29:04.174Z,14.30
2017-09-19T17:31:31.817Z,14.30
2017-09-19T17:33:59.432Z,14.20
2017-09-19T17:36:27.044Z,14.20
2017-09-19T17:38:54.630Z,14.10
2017-09-19T17:41:22.243Z,14.00
2017-09-19T17:43:49.851Z,14.00
2017-09-19T17:46:17.455Z,13.90
2017-09-19T17:48:45.826Z,13.70
2017-09-19T17:51:13.425Z,13.70
2017-09-19T17:53:41.113Z,13.70
2017-09-19T17:56:08.698Z,13.80
2017-09-19T17:58:36.301Z,13.80
2017-09-19T18:01:03.928Z,13.80
2017-09-19T18:03:31.591Z,13.70
2017-09-19T18:05:59.217Z,13.80
2017-09-19T18:08:26.798Z,13.80
2017-09-19T18:10:54.392Z,13.80
2017-09-19T18:13:22.783Z,13.80
2017-09-19T18:15:50.384Z,13.70
2017-09-19T18:18:17.979Z,13.70
2017-09-19T18:20:45.561Z,13.70
2017-09-19T18:23:14.067Z,13.60
2017-09-19T18:25:41.899Z,13.60
2017-09-19T18:28:09.517Z,13.60
2017-09-19T18:30:37.873Z,13.60
2017-09-19T18:33:05.436Z,13.60
2017-09-19T18:35:33.629Z,13.60
2017-09-19T18:38:01.993Z,13.50
2017-09-19T18:40:29.608Z,13.50
2017-09-19T18:42:57.401Z,13.60
2017-09-19T18:45:25.059Z,13.50
2017-09-19T18:47:52.687Z,13.50
2017-09-19T18:50:21.106Z,13.50
2017-09-19T18:52:48.726Z,13.40
2017-09-19T18:55:17.262Z,13.40
2017-09-19T18:57:44.852Z,13.40
2017-09-19T19:00:13.149Z,13.40
2017-09-19T19:02:40.754Z,13.20
2017-09-19T19:05:08.363Z,13.20
2017-09-19T19:07:35.964Z,13.20
2017-09-19T19:10:04.323Z,13.20
2017-09-19T19:12:31.946Z,13.20
2017-09-19T19:14:59.542Z,13.20
2017-09-19T19:17:27.168Z,13.20
2017-09-19T19:19:54.744Z,13.10
2017-09-19T19:22:22.344Z,13.10
2017-09-19T19:24:50.072Z,13.10
2017-09-19T19:27:17.839Z,13.20
2017-09-19T19:29:45.432Z,13.10
2017-09-19T19:32:13.022Z,13.10
2017-09-19T19:34:41.401Z,13.10
2017-09-19T19:37:09.222Z,13.10
2017-09-19T19:39:36.828Z,13.10
2017-09-19T19:42:04.555Z,13.00
2017-09-19T19:44:32.150Z,13.00
2017-09-19T19:47:00.557Z,12.90
2017-09-19T19:49:28.936Z,12.90
2017-09-19T19:51:57.324Z,12.90
2017-09-19T19:54:25.710Z,13.00
2017-09-19T19:56:54.059Z,13.00
2017-09-19T19:59:21.798Z,13.00
2017-09-19T20:01:49.444Z,13.00
2017-09-19T20:04:17.032Z,12.90
2017-09-19T20:06:44.820Z,12.90
2017-09-19T20:09:12.415Z,12.90
2017-09-19T20:11:40.769Z,12.90
2017-09-19T20:14:08.403Z,12.90
2017-09-19T20:16:35.997Z,12.90
2017-09-19T20:19:03.613Z,12.80
2017-09-19T20:21:31.305Z,12.80
2017-09-19T20:23:58.927Z,12.80
2017-09-19T20:26:27.280Z,12.80
2017-09-19T20:28:54.891Z,12.80
2017-09-19T20:31:22.465Z,12.80
2017-09-19T20:33:50.073Z,12.80
2017-09-19T20:36:17.637Z,12.70
2017-09-19T20:38:45.365Z,12.70
2017-09-19T20:41:12.930Z,12.70
2017-09-19T20:43:40.575Z,12.70
2017-09-19T20:46:08.195Z,12.70
2017-09-19T20:48:35.776Z,12.60
2017-09-19T20:51:03.379Z,12.60
2017-09-19T20:53:30.969Z,12.50
2017-09-19T20:55:58.576Z,12.50
2017-09-19T20:58:26.192Z,12.40
2017-09-19T21:00:53.781Z,12.30
2017-09-19T21:03:27.111Z,12.30
2017-09-19T21:06:01.256Z,12.20
2017-09-19T21:08:34.416Z,12.20
2017-09-19T21:11:08.443Z,12.20
2017-09-19T21:13:41.765Z,12.20
2017-09-19T21:16:15.090Z,12.10
2017-09-19T21:18:48.447Z,12.10
2017-09-19T21:21:16.009Z,12.10
2017-09-19T21:23:43.615Z,12.00
2017-09-19T21:26:11.227Z,12.00
2017-09-19T21:28:38.837Z,11.90
2017-09-19T21:31:06.429Z,11.90
2017-09-19T21:33:34.883Z,11.90
2017-09-19T21:36:03.296Z,11.90
2017-09-19T21:38:31.635Z,11.90
2017-09-19T21:40:59.240Z,12.00
2017-09-19T21:43:27.597Z,12.00
2017-09-19T21:45:55.184Z,12.00
2017-09-19T21:48:23.549Z,12.00
2017-09-19T21:50:51.137Z,12.00
2017-09-19T21:53:19.492Z,11.90
2017-09-19T21:55:47.111Z,11.90
2017-09-19T21:58:14.796Z,11.90
2017-09-19T22:00:42.403Z,11.80
2017-09-19T22:03:10.765Z,11.70
2017-09-19T22:05:38.379Z,11.70
2017-09-19T22:08:07.751Z,11.70
2017-09-19T22:10:35.353Z,11.60
2017-09-19T22:13:02.972Z,11.60
2017-09-19T22:15:30.555Z,11.70
2017-09-19T22:17:59.883Z,11.60
2017-09-19T22:20:27.487Z,11.60
2017-09-19T22:22:55.112Z,11.60
2017-09-19T22:25:22.751Z,11.50
2017-09-19T22:27:51.085Z,11.50
2017-09-19T22:30:19.869Z,11.50
2017-09-19T22:32:47.449Z,11.50
2017-09-19T22:35:15.049Z,11.50
2017-09-19T22:37:42.648Z,11.40
2017-09-19T22:40:10.237Z,11.40
2017-09-19T22:42:38.005Z,11.40
2017-09-19T22:45:05.598Z,11.40
2017-09-19T22:47:33.198Z,11.40
2017-09-19T22:50:01.538Z,11.40
2017-09-19T22:52:29.142Z,11.30
2017-09-19T22:54:57.526Z,11.30
2017-09-19T22:57:25.114Z,11.30
2017-09-19T22:59:52.733Z,11.30
2017-09-19T23:02:21.079Z,11.30
2017-09-19T23:04:48.722Z,11.30
2017-09-19T23:07:16.341Z,11.30
2017-09-19T23:09:43.937Z,11.30
2017-09-19T23:12:11.548Z,11.30
2017-09-19T23:14:39.128Z,11.30
2017-09-19T23:17:06.704Z,11.30
2017-09-19T23:19:34.305Z,11.20
2017-09-19T23:22:01.879Z,11.20
2017-09-19T23:24:29.483Z,11.20
2017-09-19T23:26:57.839Z,11.10
2017-09-19T23:29:25.433Z,11.10
2017-09-19T23:31:53.071Z,11.10
2017-09-19T23:34:20.695Z,11.10
2017-09-19T23:36:49.063Z,11.10
2017-09-19T23:39:17.400Z,11.10
2017-09-19T23:41:44.960Z,11.10
2017-09-19T23:44:12.620Z,11.10
2017-09-19T23:46:40.229Z,11.10
2017-09-19T23:49:07.869Z,11.10
2017-09-19T23:51:35.443Z,11.10
2017-09-19T23:54:03.105Z,11.10
2017-09-19T23:56:30.854Z,11.10
2017-09-19T23:58:58.437Z,11.00
